sensor_id;sensor_type;location;lat;lon;timestamp;temperature;humidity
55795;DHT22;41716;51.910;4.430;2023-05-20T00:00:58;16.30;99.90
55795;DHT22;41716;51.910;4.430;2023-05-20T00:06:02;16.50;99.90
55795;DHT22;41716;51.910;4.430;2023-05-20T00:11:04;16.30;99.90
55795;DHT22;41716;51.910;4.430;2023-05-20T00:16:06;16.10;99.90
55795;DHT22;41716;51.910;4.430;2023-05-20T00:21:09;16.00;99.90
55795;DHT22;41716;51.910;4.430;2023-05-20T00:26:10;16.00;99.90
55795;DHT22;41716;51.910;4.430;2023-05-20T00:31:12;16.00;99.90
55795;DHT22;41716;51.910;4.430;2023-05-20T00:36:15;15.80;99.90
55795;DHT22;41716;51.910;4.430;2023-05-20T00:41:17;15.80;99.90
55795;DHT22;41716;51.910;4.430;2023-05-20T00:46:18;15.80;99.90
55795;DHT22;41716;51.910;4.430;2023-05-20T00:51:21;15.80;99.90
55795;DHT22;41716;51.910;4.430;2023-05-20T00:56:24;15.60;99.90
55795;DHT22;41716;51.910;4.430;2023-05-20T01:01:26;15.40;99.90
55795;DHT22;41716;51.910;4.430;2023-05-20T01:06:29;15.40;99.90
55795;DHT22;41716;51.910;4.430;2023-05-20T01:11:34;15.40;99.90
55795;DHT22;41716;51.910;4.430;2023-05-20T01:16:38;15.40;99.90
55795;DHT22;41716;51.910;4.430;2023-05-20T01:21:42;15.40;99.90
55795;DHT22;41716;51.910;4.430;2023-05-20T01:26:46;15.40;99.90
55795;DHT22;41716;51.910;4.430;2023-05-20T01:31:51;15.10;99.90
55795;DHT22;41716;51.910;4.430;2023-05-20T01:36:54;15.20;99.90
55795;DHT22;41716;51.910;4.430;2023-05-20T01:41:57;15.20;99.90
55795;DHT22;41716;51.910;4.430;2023-05-20T01:47:01;15.20;99.90
55795;DHT22;41716;51.910;4.430;2023-05-20T01:52:04;15.20;99.90
55795;DHT22;41716;51.910;4.430;2023-05-20T01:57:07;15.20;99.90
55795;DHT22;41716;51.910;4.430;2023-05-20T02:02:08;14.80;99.90
55795;DHT22;41716;51.910;4.430;2023-05-20T02:07:10;14.80;99.90
55795;DHT22;41716;51.910;4.430;2023-05-20T02:12:13;14.90;99.90
55795;DHT22;41716;51.910;4.430;2023-05-20T02:17:16;14.70;99.90
55795;DHT22;41716;51.910;4.430;2023-05-20T02:22:18;14.80;99.90
55795;DHT22;41716;51.910;4.430;2023-05-20T02:27:21;14.80;99.90
55795;DHT22;41716;51.910;4.430;2023-05-20T02:32:23;14.80;99.90
55795;DHT22;41716;51.910;4.430;2023-05-20T02:37:27;14.90;99.90
55795;DHT22;41716;51.910;4.430;2023-05-20T02:42:30;14.80;99.90
55795;DHT22;41716;51.910;4.430;2023-05-20T02:47:32;14.90;99.90
55795;DHT22;41716;51.910;4.430;2023-05-20T02:52:33;14.70;99.90
55795;DHT22;41716;51.910;4.430;2023-05-20T02:57:36;14.70;99.90
55795;DHT22;41716;51.910;4.430;2023-05-20T03:02:38;14.60;99.90
55795;DHT22;41716;51.910;4.430;2023-05-20T03:07:40;14.50;99.90
55795;DHT22;41716;51.910;4.430;2023-05-20T03:12:43;14.70;99.90
55795;DHT22;41716;51.910;4.430;2023-05-20T03:17:45;14.40;99.90
55795;DHT22;41716;51.910;4.430;2023-05-20T03:22:46;14.40;99.90
55795;DHT22;41716;51.910;4.430;2023-05-20T03:27:49;14.30;99.90
55795;DHT22;41716;51.910;4.430;2023-05-20T03:32:52;14.60;99.90
55795;DHT22;41716;51.910;4.430;2023-05-20T03:37:54;14.40;99.90
55795;DHT22;41716;51.910;4.430;2023-05-20T03:42:57;14.40;99.90
55795;DHT22;41716;51.910;4.430;2023-05-20T03:47:58;14.50;99.90
55795;DHT22;41716;51.910;4.430;2023-05-20T03:53:00;14.50;99.90
55795;DHT22;41716;51.910;4.430;2023-05-20T03:58:03;14.40;99.90
55795;DHT22;41716;51.910;4.430;2023-05-20T04:03:05;14.20;99.90
55795;DHT22;41716;51.910;4.430;2023-05-20T04:08:06;14.20;99.90
55795;DHT22;41716;51.910;4.430;2023-05-20T04:13:10;14.30;99.90
55795;DHT22;41716;51.910;4.430;2023-05-20T04:18:12;14.20;99.90
55795;DHT22;41716;51.910;4.430;2023-05-20T04:23:14;14.20;99.90
55795;DHT22;41716;51.910;4.430;2023-05-20T04:28:17;14.20;99.90
55795;DHT22;41716;51.910;4.430;2023-05-20T04:33:23;14.30;99.90
55795;DHT22;41716;51.910;4.430;2023-05-20T04:38:26;14.30;99.90
55795;DHT22;41716;51.910;4.430;2023-05-20T04:43:30;14.20;99.90
55795;DHT22;41716;51.910;4.430;2023-05-20T04:48:33;14.40;99.90
55795;DHT22;41716;51.910;4.430;2023-05-20T04:53:35;14.10;99.90
55795;DHT22;41716;51.910;4.430;2023-05-20T04:58:38;14.40;99.90
55795;DHT22;41716;51.910;4.430;2023-05-20T05:03:39;14.40;99.90
55795;DHT22;41716;51.910;4.430;2023-05-20T05:08:41;14.40;99.90
55795;DHT22;41716;51.910;4.430;2023-05-20T05:13:44;14.60;99.90
55795;DHT22;41716;51.910;4.430;2023-05-20T05:18:46;14.60;99.90
55795;DHT22;41716;51.910;4.430;2023-05-20T05:23:47;14.60;99.90
55795;DHT22;41716;51.910;4.430;2023-05-20T05:28:51;14.80;99.90
55795;DHT22;41716;51.910;4.430;2023-05-20T05:33:53;14.90;99.90
55795;DHT22;41716;51.910;4.430;2023-05-20T05:38:55;14.90;99.90
55795;DHT22;41716;51.910;4.430;2023-05-20T05:43:58;14.90;99.90
55795;DHT22;41716;51.910;4.430;2023-05-20T05:49:00;14.90;99.90
55795;DHT22;41716;51.910;4.430;2023-05-20T05:54:02;15.10;99.90
55795;DHT22;41716;51.910;4.430;2023-05-20T05:59:05;15.10;99.90
55795;DHT22;41716;51.910;4.430;2023-05-20T06:04:06;15.20;99.90
55795;DHT22;41716;51.910;4.430;2023-05-20T06:09:08;15.50;99.90
55795;DHT22;41716;51.910;4.430;2023-05-20T06:14:11;15.90;99.90
55795;DHT22;41716;51.910;4.430;2023-05-20T06:19:13;16.00;99.90
55795;DHT22;41716;51.910;4.430;2023-05-20T06:24:15;16.20;99.90
55795;DHT22;41716;51.910;4.430;2023-05-20T06:29:18;16.40;99.90
55795;DHT22;41716;51.910;4.430;2023-05-20T06:34:20;16.60;99.90
55795;DHT22;41716;51.910;4.430;2023-05-20T06:39:22;16.90;99.90
55795;DHT22;41716;51.910;4.430;2023-05-20T06:44:25;17.10;99.90
55795;DHT22;41716;51.910;4.430;2023-05-20T06:49:26;17.30;99.90
55795;DHT22;41716;51.910;4.430;2023-05-20T06:54:28;17.60;99.90
55795;DHT22;41716;51.910;4.430;2023-05-20T06:59:31;17.70;99.90
55795;DHT22;41716;51.910;4.430;2023-05-20T07:04:33;17.90;99.90
55795;DHT22;41716;51.910;4.430;2023-05-20T07:09:35;18.20;99.90
55795;DHT22;41716;51.910;4.430;2023-05-20T07:14:38;18.50;99.90
55795;DHT22;41716;51.910;4.430;2023-05-20T07:19:40;18.70;99.90
55795;DHT22;41716;51.910;4.430;2023-05-20T07:24:41;19.00;99.90
55795;DHT22;41716;51.910;4.430;2023-05-20T07:29:44;19.40;99.90
55795;DHT22;41716;51.910;4.430;2023-05-20T07:34:46;19.60;99.90
55795;DHT22;41716;51.910;4.430;2023-05-20T07:39:48;19.90;99.90
55795;DHT22;41716;51.910;4.430;2023-05-20T07:44:51;20.30;99.90
55795;DHT22;41716;51.910;4.430;2023-05-20T07:49:53;20.60;99.90
55795;DHT22;41716;51.910;4.430;2023-05-20T07:54:55;20.50;99.90
55795;DHT22;41716;51.910;4.430;2023-05-20T07:59:58;21.10;99.90
55795;DHT22;41716;51.910;4.430;2023-05-20T08:04:59;21.20;99.90
55795;DHT22;41716;51.910;4.430;2023-05-20T08:10:01;21.40;99.90
55795;DHT22;41716;51.910;4.430;2023-05-20T08:15:05;21.80;99.90
55795;DHT22;41716;51.910;4.430;2023-05-20T08:20:07;21.80;99.90
55795;DHT22;41716;51.910;4.430;2023-05-20T08:25:10;22.20;99.90
55795;DHT22;41716;51.910;4.430;2023-05-20T08:30:13;22.30;99.90
55795;DHT22;41716;51.910;4.430;2023-05-20T08:35:15;22.50;99.90
55795;DHT22;41716;51.910;4.430;2023-05-20T08:40:17;23.20;99.90
55795;DHT22;41716;51.910;4.430;2023-05-20T08:45:22;23.60;99.90
55795;DHT22;41716;51.910;4.430;2023-05-20T08:50:27;23.70;99.90
55795;DHT22;41716;51.910;4.430;2023-05-20T08:55:34;23.70;99.90
55795;DHT22;41716;51.910;4.430;2023-05-20T09:00:39;23.60;99.90
55795;DHT22;41716;51.910;4.430;2023-05-20T09:05:41;24.10;99.90
55795;DHT22;41716;51.910;4.430;2023-05-20T09:10:43;24.50;99.90
55795;DHT22;41716;51.910;4.430;2023-05-20T09:15:46;24.50;99.90
55795;DHT22;41716;51.910;4.430;2023-05-20T09:20:49;24.70;99.90
55795;DHT22;41716;51.910;4.430;2023-05-20T09:25:52;24.80;99.90
55795;DHT22;41716;51.910;4.430;2023-05-20T09:30:57;25.00;99.90
55795;DHT22;41716;51.910;4.430;2023-05-20T09:36:03;24.90;99.90
55795;DHT22;41716;51.910;4.430;2023-05-20T09:41:06;24.90;99.90
55795;DHT22;41716;51.910;4.430;2023-05-20T09:46:10;25.00;99.90
55795;DHT22;41716;51.910;4.430;2023-05-20T09:51:13;25.20;99.90
55795;DHT22;41716;51.910;4.430;2023-05-20T09:56:15;25.10;99.90
55795;DHT22;41716;51.910;4.430;2023-05-20T10:01:19;25.50;99.90
55795;DHT22;41716;51.910;4.430;2023-05-20T10:06:44;25.60;99.90
55795;DHT22;41716;51.910;4.430;2023-05-20T10:11:57;25.60;99.90
55795;DHT22;41716;51.910;4.430;2023-05-20T10:17:08;25.60;99.90
55795;DHT22;41716;51.910;4.430;2023-05-20T10:22:11;25.40;99.90
55795;DHT22;41716;51.910;4.430;2023-05-20T10:27:13;25.30;99.90
55795;DHT22;41716;51.910;4.430;2023-05-20T10:32:27;25.90;99.90
55795;DHT22;41716;51.910;4.430;2023-05-20T10:37:32;26.80;99.90
55795;DHT22;41716;51.910;4.430;2023-05-20T10:42:34;26.60;99.90
55795;DHT22;41716;51.910;4.430;2023-05-20T10:47:41;27.20;99.90
55795;DHT22;41716;51.910;4.430;2023-05-20T10:52:53;26.80;99.80
55795;DHT22;41716;51.910;4.430;2023-05-20T10:57:56;26.70;99.70
55795;DHT22;41716;51.910;4.430;2023-05-20T11:03:00;27.20;99.20
55795;DHT22;41716;51.910;4.430;2023-05-20T11:08:05;26.30;99.00
55795;DHT22;41716;51.910;4.430;2023-05-20T11:13:07;26.60;99.20
55795;DHT22;41716;51.910;4.430;2023-05-20T11:18:10;27.00;98.10
55795;DHT22;41716;51.910;4.430;2023-05-20T11:23:14;27.00;98.00
55795;DHT22;41716;51.910;4.430;2023-05-20T11:28:16;27.50;97.80
55795;DHT22;41716;51.910;4.430;2023-05-20T11:33:24;28.30;97.70
55795;DHT22;41716;51.910;4.430;2023-05-20T11:38:27;27.20;98.10
55795;DHT22;41716;51.910;4.430;2023-05-20T11:43:32;27.50;97.50
55795;DHT22;41716;51.910;4.430;2023-05-20T11:48:35;26.80;98.50
55795;DHT22;41716;51.910;4.430;2023-05-20T11:53:39;27.00;99.10
55795;DHT22;41716;51.910;4.430;2023-05-20T11:58:43;26.80;99.00
55795;DHT22;41716;51.910;4.430;2023-05-20T12:03:46;26.40;98.70
55795;DHT22;41716;51.910;4.430;2023-05-20T12:08:48;27.10;99.10
55795;DHT22;41716;51.910;4.430;2023-05-20T12:13:49;27.10;98.00
55795;DHT22;41716;51.910;4.430;2023-05-20T12:18:52;27.20;98.20
55795;DHT22;41716;51.910;4.430;2023-05-20T12:23:54;27.50;98.20
55795;DHT22;41716;51.910;4.430;2023-05-20T12:28:57;27.30;96.50
55795;DHT22;41716;51.910;4.430;2023-05-20T12:34:00;26.80;96.30
55795;DHT22;41716;51.910;4.430;2023-05-20T12:39:01;27.70;96.40
55795;DHT22;41716;51.910;4.430;2023-05-20T12:44:04;27.40;97.10
55795;DHT22;41716;51.910;4.430;2023-05-20T12:49:07;27.10;96.90
55795;DHT22;41716;51.910;4.430;2023-05-20T12:54:09;26.80;97.60
55795;DHT22;41716;51.910;4.430;2023-05-20T12:59:10;26.40;96.60
55795;DHT22;41716;51.910;4.430;2023-05-20T13:04:13;27.10;97.00
55795;DHT22;41716;51.910;4.430;2023-05-20T13:09:16;27.30;97.10
55795;DHT22;41716;51.910;4.430;2023-05-20T13:14:17;26.90;96.30
55795;DHT22;41716;51.910;4.430;2023-05-20T13:19:21;27.40;95.60
55795;DHT22;41716;51.910;4.430;2023-05-20T13:24:23;26.80;95.90
55795;DHT22;41716;51.910;4.430;2023-05-20T13:29:25;26.50;95.80
55795;DHT22;41716;51.910;4.430;2023-05-20T13:34:28;26.90;96.10
55795;DHT22;41716;51.910;4.430;2023-05-20T13:39:30;26.40;95.50
55795;DHT22;41716;51.910;4.430;2023-05-20T13:44:32;26.80;96.10
55795;DHT22;41716;51.910;4.430;2023-05-20T13:49:35;26.80;95.90
55795;DHT22;41716;51.910;4.430;2023-05-20T13:54:37;27.30;95.80
55795;DHT22;41716;51.910;4.430;2023-05-20T13:59:39;27.30;95.50
55795;DHT22;41716;51.910;4.430;2023-05-20T14:04:42;27.30;95.70
55795;DHT22;41716;51.910;4.430;2023-05-20T14:09:46;27.00;95.90
55795;DHT22;41716;51.910;4.430;2023-05-20T14:14:48;26.40;95.80
55795;DHT22;41716;51.910;4.430;2023-05-20T14:19:51;26.20;96.20
55795;DHT22;41716;51.910;4.430;2023-05-20T14:24:52;26.00;96.20
55795;DHT22;41716;51.910;4.430;2023-05-20T14:29:54;25.90;96.50
55795;DHT22;41716;51.910;4.430;2023-05-20T14:34:57;26.10;96.50
55795;DHT22;41716;51.910;4.430;2023-05-20T14:39:59;25.60;97.10
55795;DHT22;41716;51.910;4.430;2023-05-20T14:45:02;25.90;97.30
55795;DHT22;41716;51.910;4.430;2023-05-20T14:50:05;25.80;97.00
55795;DHT22;41716;51.910;4.430;2023-05-20T14:55:07;25.60;97.00
55795;DHT22;41716;51.910;4.430;2023-05-20T15:00:10;25.70;97.10
55795;DHT22;41716;51.910;4.430;2023-05-20T15:05:13;25.50;96.70
55795;DHT22;41716;51.910;4.430;2023-05-20T15:10:15;25.80;97.10
55795;DHT22;41716;51.910;4.430;2023-05-20T15:15:17;25.60;96.70
55795;DHT22;41716;51.910;4.430;2023-05-20T15:20:20;25.90;96.70
55795;DHT22;41716;51.910;4.430;2023-05-20T15:25:22;25.80;96.80
55795;DHT22;41716;51.910;4.430;2023-05-20T15:30:24;25.50;97.30
55795;DHT22;41716;51.910;4.430;2023-05-20T15:35:27;25.40;97.50
55795;DHT22;41716;51.910;4.430;2023-05-20T15:40:29;25.50;97.90
55795;DHT22;41716;51.910;4.430;2023-05-20T15:45:31;24.90;97.50
55795;DHT22;41716;51.910;4.430;2023-05-20T15:50:35;25.00;98.90
55795;DHT22;41716;51.910;4.430;2023-05-20T15:55:37;24.80;98.80
55795;DHT22;41716;51.910;4.430;2023-05-20T16:00:39;24.70;98.70
55795;DHT22;41716;51.910;4.430;2023-05-20T16:05:42;24.50;98.50
55795;DHT22;41716;51.910;4.430;2023-05-20T16:10:44;24.60;98.80
55795;DHT22;41716;51.910;4.430;2023-05-20T16:15:46;24.70;99.20
55795;DHT22;41716;51.910;4.430;2023-05-20T16:20:50;24.50;99.90
55795;DHT22;41716;51.910;4.430;2023-05-20T16:25:52;24.50;99.70
55795;DHT22;41716;51.910;4.430;2023-05-20T16:30:53;24.20;99.40
55795;DHT22;41716;51.910;4.430;2023-05-20T16:35:57;24.20;99.30
55795;DHT22;41716;51.910;4.430;2023-05-20T16:40:58;24.40;99.70
55795;DHT22;41716;51.910;4.430;2023-05-20T16:46:00;24.30;99.50
55795;DHT22;41716;51.910;4.430;2023-05-20T16:51:04;23.90;99.50
55795;DHT22;41716;51.910;4.430;2023-05-20T16:56:07;24.00;99.70
55795;DHT22;41716;51.910;4.430;2023-05-20T17:01:08;23.80;99.90
55795;DHT22;41716;51.910;4.430;2023-05-20T17:06:12;23.80;99.90
55795;DHT22;41716;51.910;4.430;2023-05-20T17:11:13;23.70;99.90
55795;DHT22;41716;51.910;4.430;2023-05-20T17:16:15;23.40;99.90
55795;DHT22;41716;51.910;4.430;2023-05-20T17:21:18;23.40;99.90
55795;DHT22;41716;51.910;4.430;2023-05-20T17:26:20;23.40;99.90
55795;DHT22;41716;51.910;4.430;2023-05-20T17:31:22;23.00;99.90
55795;DHT22;41716;51.910;4.430;2023-05-20T17:36:25;22.90;99.90
55795;DHT22;41716;51.910;4.430;2023-05-20T17:41:27;22.80;99.90
55795;DHT22;41716;51.910;4.430;2023-05-20T17:46:29;22.70;99.90
55795;DHT22;41716;51.910;4.430;2023-05-20T17:51:32;22.60;99.90
55795;DHT22;41716;51.910;4.430;2023-05-20T17:56:34;22.50;99.90
55795;DHT22;41716;51.910;4.430;2023-05-20T18:01:35;22.30;99.90
55795;DHT22;41716;51.910;4.430;2023-05-20T18:06:39;22.30;99.90
55795;DHT22;41716;51.910;4.430;2023-05-20T18:11:41;22.10;99.90
55795;DHT22;41716;51.910;4.430;2023-05-20T18:16:43;22.00;99.90
55795;DHT22;41716;51.910;4.430;2023-05-20T18:21:46;21.90;99.90
55795;DHT22;41716;51.910;4.430;2023-05-20T18:26:47;21.80;99.90
55795;DHT22;41716;51.910;4.430;2023-05-20T18:31:49;21.70;99.90
55795;DHT22;41716;51.910;4.430;2023-05-20T18:36:52;21.60;99.90
55795;DHT22;41716;51.910;4.430;2023-05-20T18:41:54;21.60;99.90
55795;DHT22;41716;51.910;4.430;2023-05-20T18:46:56;21.50;99.90
55795;DHT22;41716;51.910;4.430;2023-05-20T18:51:59;21.60;99.90
55795;DHT22;41716;51.910;4.430;2023-05-20T18:57:00;21.50;99.90
55795;DHT22;41716;51.910;4.430;2023-05-20T19:02:04;21.40;99.90
55795;DHT22;41716;51.910;4.430;2023-05-20T19:07:07;21.10;99.90
55795;DHT22;41716;51.910;4.430;2023-05-20T19:12:10;21.00;99.90
55795;DHT22;41716;51.910;4.430;2023-05-20T19:17:12;20.80;99.90
55795;DHT22;41716;51.910;4.430;2023-05-20T19:22:15;20.80;99.90
55795;DHT22;41716;51.910;4.430;2023-05-20T19:27:17;20.70;99.90
55795;DHT22;41716;51.910;4.430;2023-05-20T19:32:19;20.50;99.90
55795;DHT22;41716;51.910;4.430;2023-05-20T19:37:22;20.40;99.90
55795;DHT22;41716;51.910;4.430;2023-05-20T19:42:23;20.30;99.90
55795;DHT22;41716;51.910;4.430;2023-05-20T19:47:26;20.30;99.90
55795;DHT22;41716;51.910;4.430;2023-05-20T19:52:30;20.50;99.90
55795;DHT22;41716;51.910;4.430;2023-05-20T19:57:32;20.30;99.90
55795;DHT22;41716;51.910;4.430;2023-05-20T20:02:33;20.20;99.90
55795;DHT22;41716;51.910;4.430;2023-05-20T20:07:36;19.80;99.90
55795;DHT22;41716;51.910;4.430;2023-05-20T20:12:38;19.90;99.90
55795;DHT22;41716;51.910;4.430;2023-05-20T20:17:40;19.80;99.90
55795;DHT22;41716;51.910;4.430;2023-05-20T20:22:46;19.70;99.90
55795;DHT22;41716;51.910;4.430;2023-05-20T20:27:47;19.60;99.90
55795;DHT22;41716;51.910;4.430;2023-05-20T20:32:49;19.50;99.90
55795;DHT22;41716;51.910;4.430;2023-05-20T20:37:54;19.40;99.90
55795;DHT22;41716;51.910;4.430;2023-05-20T20:42:55;19.30;99.90
55795;DHT22;41716;51.910;4.430;2023-05-20T20:47:58;19.10;99.90
55795;DHT22;41716;51.910;4.430;2023-05-20T20:53:01;18.80;99.90
55795;DHT22;41716;51.910;4.430;2023-05-20T20:58:03;18.90;99.90
55795;DHT22;41716;51.910;4.430;2023-05-20T21:03:06;18.80;99.90
55795;DHT22;41716;51.910;4.430;2023-05-20T21:08:09;18.80;99.90
55795;DHT22;41716;51.910;4.430;2023-05-20T21:13:12;18.70;99.90
55795;DHT22;41716;51.910;4.430;2023-05-20T21:18:14;18.70;99.90
55795;DHT22;41716;51.910;4.430;2023-05-20T21:23:22;18.90;99.90
55795;DHT22;41716;51.910;4.430;2023-05-20T21:28:24;18.90;99.90
55795;DHT22;41716;51.910;4.430;2023-05-20T21:33:26;18.90;99.90
55795;DHT22;41716;51.910;4.430;2023-05-20T21:38:29;18.90;99.90
55795;DHT22;41716;51.910;4.430;2023-05-20T21:43:30;18.80;99.90
55795;DHT22;41716;51.910;4.430;2023-05-20T21:48:32;18.60;99.90
55795;DHT22;41716;51.910;4.430;2023-05-20T21:53:35;18.50;99.90
55795;DHT22;41716;51.910;4.430;2023-05-20T21:58:37;18.50;99.90
55795;DHT22;41716;51.910;4.430;2023-05-20T22:03:40;18.40;99.90
55795;DHT22;41716;51.910;4.430;2023-05-20T22:08:46;18.40;99.90
55795;DHT22;41716;51.910;4.430;2023-05-20T22:13:48;18.20;99.90
55795;DHT22;41716;51.910;4.430;2023-05-20T22:18:50;18.20;99.90
55795;DHT22;41716;51.910;4.430;2023-05-20T22:23:54;18.10;99.90
55795;DHT22;41716;51.910;4.430;2023-05-20T22:28:56;17.90;99.90
55795;DHT22;41716;51.910;4.430;2023-05-20T22:33:58;17.90;99.90
55795;DHT22;41716;51.910;4.430;2023-05-20T22:39:01;17.80;99.90
55795;DHT22;41716;51.910;4.430;2023-05-20T22:44:03;17.80;99.90
55795;DHT22;41716;51.910;4.430;2023-05-20T22:49:05;17.60;99.90
55795;DHT22;41716;51.910;4.430;2023-05-20T22:54:08;17.40;99.90
55795;DHT22;41716;51.910;4.430;2023-05-20T22:59:10;17.30;99.90
55795;DHT22;41716;51.910;4.430;2023-05-20T23:04:12;17.20;99.90
55795;DHT22;41716;51.910;4.430;2023-05-20T23:09:15;17.20;99.90
55795;DHT22;41716;51.910;4.430;2023-05-20T23:14:17;17.10;99.90
55795;DHT22;41716;51.910;4.430;2023-05-20T23:19:19;17.10;99.90
55795;DHT22;41716;51.910;4.430;2023-05-20T23:24:22;17.10;99.90
55795;DHT22;41716;51.910;4.430;2023-05-20T23:29:24;17.00;99.90
55795;DHT22;41716;51.910;4.430;2023-05-20T23:34:26;17.10;99.90
55795;DHT22;41716;51.910;4.430;2023-05-20T23:39:31;17.10;99.90
55795;DHT22;41716;51.910;4.430;2023-05-20T23:44:33;17.00;99.90
55795;DHT22;41716;51.910;4.430;2023-05-20T23:49:34;17.00;99.90
55795;DHT22;41716;51.910;4.430;2023-05-20T23:54:37;17.00;99.90
55795;DHT22;41716;51.910;4.430;2023-05-20T23:59:39;16.90;99.90
